To NAV CANADA Home Page Login to a new session Search on AWWS site Feedback and Comments Disclaimer Vers la page française équivalente Tips FAQ What's new on the site To the Forecasts and Observations / NOTAM section To "File a Flight Plan" website Publications and other links Update of the User's profile FIC Telephone Numbers My Weather Data Folder Route Weather Data Regional Weather Data Local Weather Data To the Forecasts and Observations / NOTAM section
Request Generated 07/29/2015 at 06:50:30 UTC . Weather information available at that time is displayed.

METAR/TAF

HAY RIVER/MERLYN CARTER AIRPORT/NT    

METAR CYHY 290600Z 19006KT 15SM FEW040 FEW060 15/13 A2977 RMK SC1SC1
SLP086 DENSITY ALT 800FT=
METAR CYHY 290500Z 18005KT 15SM FEW040TCU FEW050 FEW240 15/13 A2977
RMK TCU1SC1CI1 TCU TR TCU DIST NNW SLP086 DENSITY ALT 800FT=
METAR CYHY 290400Z 17005KT 15SM FEW040TCU FEW060 FEW240 17/14 A2978
RMK TCU1SC1CI1 TCU TR TCU DIST NNW SLP087 DENSITY ALT 1000FT=

TAF CYHY 290538Z 2906/2918 18005KT P6SM FEW040 FEW250
BECMG 2916/2918 19008KT
RMK NXT FCST BY 291200Z=
Your time UTC time
Weather data provided by Environment Canada and NAV CANADA